Soradoville, Pennsylvania
Current Conditions -  °F | °C
As of 5:53 PM on Friday 19 Dec 2014 (Local Time) from KUNV Reporting Station
Broken Clouds Broken Clouds  
Wind Chill: 23°   Ceiling: 3100
Heat Index: 30°   Visibility: 10mi
Dew Point: 19°   Wind: 7mph
Humidity: 64%   Direction: 310°NW
Pressure: 30.17"   Gusts: NA
Location:  40.7125°N, 77.3707°W
Report Text: KUNV 192253Z 31006KT 10SM BKN031 M01/M07 A3017
Loading
Personal Weather Stations






























Interactive Weather Map New forecast layout! Learn more

10-Day Weather Forecast

Advertisements
Track Severe Weather on mobile